createdAt,value
2019-03-16T15:02:38.077Z,12.80
2019-03-16T15:05:08.580Z,12.80
2019-03-16T15:07:38.948Z,12.80
2019-03-16T15:10:09.522Z,12.80
2019-03-16T15:12:39.771Z,12.70
2019-03-16T15:15:11.599Z,12.60
2019-03-16T15:17:41.335Z,12.60
2019-03-16T15:20:10.849Z,12.60
2019-03-16T15:22:41.233Z,12.50
2019-03-16T15:25:11.561Z,12.40
2019-03-16T15:27:42.219Z,12.40
2019-03-16T15:30:14.231Z,12.40
2019-03-16T15:32:44.643Z,12.30
2019-03-16T15:35:14.718Z,12.30
2019-03-16T15:37:45.022Z,12.30
2019-03-16T15:40:14.747Z,12.20
2019-03-16T15:42:44.952Z,12.20
2019-03-16T15:45:17.034Z,12.10
2019-03-16T15:47:47.186Z,12.10
2019-03-16T15:50:17.256Z,12.10
2019-03-16T15:52:47.382Z,12.10
2019-03-16T15:55:17.525Z,12.10
2019-03-16T15:57:47.946Z,12.10
2019-03-16T16:00:18.155Z,12.10
2019-03-16T16:02:48.853Z,12.10
2019-03-16T16:05:18.931Z,12.10
2019-03-16T16:07:48.672Z,12.10
2019-03-16T16:10:19.103Z,12.00
2019-03-16T16:12:49.603Z,11.90
2019-03-16T16:15:19.630Z,11.90
2019-03-16T16:17:50.361Z,11.90
2019-03-16T16:20:20.425Z,11.80
2019-03-16T16:22:50.457Z,11.70
2019-03-16T16:25:20.809Z,11.60
2019-03-16T16:27:50.843Z,11.50
2019-03-16T16:30:20.636Z,11.40
2019-03-16T16:32:51.038Z,11.30
2019-03-16T16:35:21.155Z,11.20
2019-03-16T16:37:51.533Z,11.10
2019-03-16T16:40:21.967Z,11.00
2019-03-16T16:42:52.715Z,11.00
2019-03-16T16:45:23.085Z,11.00
2019-03-16T16:47:52.991Z,10.90
2019-03-16T16:50:23.362Z,10.90
2019-03-16T16:52:53.869Z,10.80
2019-03-16T16:55:23.892Z,10.70
2019-03-16T16:57:54.277Z,10.70
2019-03-16T17:00:24.317Z,10.60
2019-03-16T17:02:55.088Z,10.60
2019-03-16T17:05:25.760Z,10.60
2019-03-16T17:07:56.016Z,10.50
2019-03-16T17:10:26.429Z,10.40
2019-03-16T17:12:55.795Z,10.20
2019-03-16T17:15:26.492Z,10.00
2019-03-16T17:17:57.225Z,9.90
2019-03-16T17:20:27.318Z,9.80
2019-03-16T17:22:57.250Z,9.50
2019-03-16T17:25:27.638Z,9.20
2019-03-16T17:27:57.649Z,9.00
2019-03-16T17:30:28.487Z,9.00
2019-03-16T17:32:59.212Z,8.90
2019-03-16T17:35:29.153Z,8.70
2019-03-16T17:37:59.123Z,8.60
2019-03-16T17:40:29.552Z,8.50
2019-03-16T17:42:59.358Z,8.40
2019-03-16T17:45:29.739Z,8.30
2019-03-16T17:47:59.729Z,8.30
2019-03-16T17:50:29.979Z,8.20
2019-03-16T17:53:00.371Z,8.20
2019-03-16T17:55:30.889Z,8.10
2019-03-16T17:58:00.935Z,8.00
2019-03-16T18:00:30.989Z,8.00
2019-03-16T18:03:01.384Z,8.10
2019-03-16T18:05:31.753Z,8.20
2019-03-16T18:08:02.232Z,8.30
2019-03-16T18:10:33.100Z,8.40
2019-03-16T18:13:03.500Z,8.50
2019-03-16T18:15:33.858Z,8.60
2019-03-16T18:18:04.355Z,8.70
2019-03-16T18:20:34.755Z,8.70
2019-03-16T18:23:05.373Z,8.90
2019-03-16T18:25:37.808Z,9.00
2019-03-16T18:28:07.489Z,9.00
2019-03-16T18:30:37.523Z,8.90
2019-03-16T18:33:07.629Z,8.80
2019-03-16T18:35:37.403Z,8.70
2019-03-16T18:38:07.777Z,8.80
2019-03-16T18:40:37.882Z,8.70
2019-03-16T18:43:07.961Z,8.60
2019-03-16T18:45:38.108Z,8.40
2019-03-16T18:48:08.088Z,8.20
2019-03-16T18:50:38.776Z,7.90
2019-03-16T18:53:09.091Z,7.60
2019-03-16T18:55:39.416Z,7.50
2019-03-16T18:58:09.118Z,7.40
2019-03-16T19:00:39.116Z,7.20
2019-03-16T19:03:11.519Z,7.10
2019-03-16T19:05:41.141Z,7.20
2019-03-16T19:08:10.895Z,7.40
2019-03-16T19:10:41.299Z,7.70
2019-03-16T19:13:10.548Z,7.70
2019-03-16T19:15:40.815Z,7.50
2019-03-16T19:18:11.266Z,7.30
2019-03-16T19:20:41.356Z,7.20
2019-03-16T19:23:11.823Z,7.20
2019-03-16T19:25:42.646Z,7.20
2019-03-16T19:28:13.220Z,7.30
2019-03-16T19:30:43.642Z,7.20
2019-03-16T19:33:13.923Z,7.80
2019-03-16T19:35:44.706Z,8.40
2019-03-16T19:38:14.971Z,8.40
2019-03-16T19:40:45.056Z,8.40
2019-03-16T19:43:15.268Z,8.40
2019-03-16T19:45:45.605Z,8.50
2019-03-16T19:48:16.426Z,9.00
2019-03-16T19:50:46.849Z,9.30
2019-03-16T19:53:16.888Z,9.40
2019-03-16T19:55:47.000Z,9.40
2019-03-16T19:58:17.479Z,9.40
2019-03-16T20:00:47.853Z,9.40
2019-03-16T20:03:18.495Z,9.40
2019-03-16T20:05:48.682Z,9.40
2019-03-16T20:08:18.790Z,9.40
2019-03-16T20:10:49.262Z,9.30
2019-03-16T20:13:19.697Z,9.30
2019-03-16T20:15:49.705Z,9.20
2019-03-16T20:18:19.849Z,9.20
2019-03-16T20:20:50.702Z,9.30
2019-03-16T20:23:20.889Z,9.20
2019-03-16T20:25:51.113Z,9.20
2019-03-16T20:28:21.619Z,9.30
2019-03-16T20:30:52.304Z,9.50
2019-03-16T20:33:21.698Z,9.60
2019-03-16T20:35:51.602Z,9.70
2019-03-16T20:38:21.956Z,9.90
2019-03-16T20:40:52.321Z,10.00
2019-03-16T20:43:22.459Z,9.90
2019-03-16T20:45:52.646Z,9.90
2019-03-16T20:48:22.594Z,9.90
2019-03-16T20:50:52.310Z,10.40
2019-03-16T20:53:21.667Z,10.30
2019-03-16T20:55:51.703Z,10.30
2019-03-16T20:58:22.424Z,10.50
